Airfield :
LOGIN :

Register | Disclaimer

   EN    FR    IT 

 










Legend :    VFR   Marginal VFR   IFR   Intensive IFR   Very Intensive IFR
Visi :
Ceiling :
>= 8 km
>= 3000ft
5 to 8 km
1000 to 3000 ft
1500m to 5 km
500 to 1000 ft
800 to 1500m
200 to 500 ft
< 800m
< 200 ft
Symbols :   Thunderstorms  Fog  Heavy snow  Heavy precipitations  Wind > 20 kt
SIGMETs :     Misc.  Thunderstorms  Icing  Turbulence  Mountain Waves  Volcanic Ashes







- Airport Elevation : 3 ft
- IATA code : DHR


EHKD - Den Helder De Kooy

CURRENT METAR :
  • 191455Z AUTO 21024G37KT 170V240 9999 FEW280 20/15 Q1012 BLU 21025G35KT 9999 FEW014 SCT300

EXPIRED METARs :
  • 191425Z AUTO 21027G42KT 180V240 9999 OVC260 21/15 Q1012 BLU 21025G35KT 9999 FEW014 SCT300
  • 191355Z AUTO 21027KT 180V240 9999 OVC240 21/15 Q1013 BLU 21025G35KT 9999 FEW014 SCT300
  • 191325Z AUTO 21025KT 180V240 9999 BKN320 20/16 Q1013 BLU 21025G35KT 9999 FEW014 SCT300
  • 191255Z AUTO 21024KT 180V250 9999 BKN320 20/16 Q1013 BLU 21025G35KT 9999 FEW014 SCT300
  • 191225Z AUTO 21023G34KT 180V240 9999 FEW014 OVC340 20/17 Q1013 BLU 21025G35KT 9999 FEW014 SCT300

TAF TAF EHKD
Valid from the 19 at 09:00 until the 19 at 21:00 UTC


190840Z 1909/1921 21012G22KT 9999 FEW015 SCT040
BECMG 1911/1914 22024G40KT
No reported NOTAMs for that airfield.



MET'MAP, your aeronautical weather chart ! - Copyright ORBIFLY December 2007 - Disclaimer

ORBIFLY MET'MAP TEAM :

Programming & Development : Alexandra Zaïnal
Concept & Development : Baudouin d'Aumeries
Co-Development & Prog : Marc-Olivier Méhu
Technical & hardware support : Manuel Goepfert

Contact : metmap@orbifly.com




SOURCES & CREDITS :

   NOAA